Time,TemperatureF,DewpointF,PressureIn,WindDirection,WindDirectionDegrees,WindSpeedMPH,WindSpeedGustMPH,Humidity,HourlyPrecipIn,Conditions,Clouds,dailyrainin,SoftwareType,DateUTC
2013-02-14 00:21:00,23.6,22.0,29.83,NNW,338,0.0,-999.0,92,-99.99,,,0.00,weatherlink.com 1.10,2013-02-14 05:21:00,
2013-02-14 00:36:00,23.8,22.0,29.84,NNW,338,0.0,-999.0,93,-99.99,,,0.00,weatherlink.com 1.10,2013-02-14 05:36:00,
2013-02-14 00:51:00,24.2,23.0,29.84,NNW,338,0.0,-999.0,93,-99.99,,,0.00,weatherlink.com 1.10,2013-02-14 05:51:00,
2013-02-14 01:06:00,24.8,23.0,29.85,NNW,338,0.0,-999.0,94,-99.99,,,0.00,weatherlink.com 1.10,2013-02-14 06:06:00,
2013-02-14 01:21:00,25.7,24.0,29.85,NNW,333,0.0,-999.0,94,-99.99,,,0.00,weatherlink.com 1.10,2013-02-14 06:21:00,
2013-02-14 01:36:00,26.6,25.0,29.85,NNW,333,0.0,-999.0,94,-99.99,,,0.00,weatherlink.com 1.10,2013-02-14 06:36:00,
2013-02-14 01:51:00,27.0,25.0,29.85,NNW,333,0.0,-999.0,93,-99.99,,,0.00,weatherlink.com 1.10,2013-02-14 06:51:00,
2013-02-14 02:06:00,27.4,26.0,29.86,NNW,333,0.0,-999.0,93,-99.99,,,0.00,weatherlink.com 1.10,2013-02-14 07:06:00,
2013-02-14 02:21:00,27.7,26.0,29.86,NNW,333,0.0,-999.0,92,-99.99,,,0.00,weatherlink.com 1.10,2013-02-14 07:21:00,
2013-02-14 02:36:00,28.1,26.0,29.85,NNW,333,0.0,-999.0,92,-99.99,,,0.00,weatherlink.com 1.10,2013-02-14 07:36:00,
2013-02-14 02:51:00,28.3,26.0,29.86,NNW,333,0.0,-999.0,91,-99.99,,,0.00,weatherlink.com 1.10,2013-02-14 07:51:00,
2013-02-14 03:06:00,28.4,26.0,29.86,NNW,332,0.0,-999.0,91,-99.99,,,0.00,weatherlink.com 1.10,2013-02-14 08:06:00,
2013-02-14 03:21:00,28.6,26.0,29.86,South,171,0.0,-999.0,91,-99.99,,,0.00,weatherlink.com 1.10,2013-02-14 08:21:00,
2013-02-14 03:36:00,28.9,27.0,29.86,WNW,301,0.0,-999.0,91,-99.99,,,0.00,weatherlink.com 1.10,2013-02-14 08:36:00,
2013-02-14 03:51:00,29.2,27.0,29.86,South,184,0.0,-999.0,90,-99.99,,,0.00,weatherlink.com 1.10,2013-02-14 08:51:00,
2013-02-14 04:06:00,29.3,27.0,29.87,NW,313,0.0,-999.0,89,-99.99,,,0.00,weatherlink.com 1.10,2013-02-14 09:06:00,
2013-02-14 04:21:00,29.4,26.0,29.87,WNW,288,2.0,-999.0,88,-99.99,,,0.00,weatherlink.com 1.10,2013-02-14 09:21:00,
2013-02-14 04:36:00,29.5,26.0,29.87,SW,220,0.0,-999.0,88,-99.99,,,0.00,weatherlink.com 1.10,2013-02-14 09:36:00,
2013-02-14 04:51:00,29.5,26.0,29.88,SW,220,0.0,-999.0,88,-99.99,,,0.00,weatherlink.com 1.10,2013-02-14 09:51:00,
2013-02-14 05:06:00,29.6,27.0,29.88,WSW,239,1.0,-999.0,88,-99.99,,,0.00,weatherlink.com 1.10,2013-02-14 10:06:00,
2013-02-14 05:21:00,29.6,27.0,29.88,WNW,297,0.0,-999.0,88,-99.99,,,0.00,weatherlink.com 1.10,2013-02-14 10:21:00,
2013-02-14 05:36:00,29.6,27.0,29.88,West,259,0.0,-999.0,88,-99.99,,,0.00,weatherlink.com 1.10,2013-02-14 10:36:00,
2013-02-14 05:51:00,29.6,26.0,29.88,SW,214,0.0,-999.0,87,-99.99,,,0.00,weatherlink.com 1.10,2013-02-14 10:51:00,
2013-02-14 06:06:00,29.7,26.0,29.89,SSW,208,0.0,-999.0,87,-99.99,,,0.00,weatherlink.com 1.10,2013-02-14 11:06:00,
2013-02-14 06:21:00,29.7,26.0,29.89,SSW,207,3.0,-999.0,87,-99.99,,,0.00,weatherlink.com 1.10,2013-02-14 11:21:00,
2013-02-14 06:36:00,29.7,26.0,29.90,WSW,238,1.0,-999.0,86,-99.99,,,0.00,weatherlink.com 1.10,2013-02-14 11:36:00,
2013-02-14 06:51:00,29.7,26.0,29.90,WSW,238,0.0,-999.0,85,-99.99,,,0.00,weatherlink.com 1.10,2013-02-14 11:51:00,
2013-02-14 07:06:00,29.6,26.0,29.90,SW,234,0.0,-999.0,85,-99.99,,,0.00,weatherlink.com 1.10,2013-02-14 12:06:00,
2013-02-14 07:21:00,29.6,25.0,29.91,ESE,123,0.0,-999.0,84,-99.99,,,0.00,weatherlink.com 1.10,2013-02-14 12:21:00,
2013-02-14 07:36:00,29.4,25.0,29.91,South,188,0.0,-999.0,84,-99.99,,,0.00,weatherlink.com 1.10,2013-02-14 12:36:00,
2013-02-14 07:51:00,29.3,25.0,29.91,West,272,1.0,-999.0,84,-99.99,,,0.00,weatherlink.com 1.10,2013-02-14 12:51:00,
2013-02-14 08:06:00,29.3,25.0,29.92,SSE,155,3.0,-999.0,83,-99.99,,,0.00,weatherlink.com 1.10,2013-02-14 13:06:00,
2013-02-14 08:21:00,29.3,25.0,29.92,South,171,2.0,-999.0,83,-99.99,,,0.00,weatherlink.com 1.10,2013-02-14 13:21:00,
2013-02-14 08:36:00,29.3,24.0,29.92,SSE,154,1.0,-999.0,82,-99.99,,,0.00,weatherlink.com 1.10,2013-02-14 13:36:00,
2013-02-14 08:51:00,29.8,25.0,29.92,SW,227,3.0,-999.0,82,-99.99,,,0.00,weatherlink.com 1.10,2013-02-14 13:51:00,
2013-02-14 09:06:00,30.1,25.0,29.91,ESE,108,1.0,-999.0,80,-99.99,,,0.00,weatherlink.com 1.10,2013-02-14 14:06:00,
2013-02-14 09:21:00,30.8,25.0,29.91,South,178,1.0,-999.0,78,-99.99,,,0.00,weatherlink.com 1.10,2013-02-14 14:21:00,
2013-02-14 09:36:00,31.4,25.0,29.91,SSW,212,0.0,-999.0,76,-99.99,,,0.00,weatherlink.com 1.10,2013-02-14 14:36:00,
2013-02-14 09:51:00,32.6,25.0,29.91,SSW,200,0.0,-999.0,74,-99.99,,,0.00,weatherlink.com 1.10,2013-02-14 14:51:00,
2013-02-14 10:06:00,33.9,25.0,29.90,SSW,205,3.0,-999.0,70,-99.99,,,0.00,weatherlink.com 1.10,2013-02-14 15:06:00,
2013-02-14 10:21:00,35.3,25.0,29.89,ESE,113,4.0,-999.0,67,-99.99,,,0.00,weatherlink.com 1.10,2013-02-14 15:21:00,
2013-02-14 10:36:00,36.4,26.0,29.89,SSE,151,0.0,-999.0,65,-99.99,,,0.00,weatherlink.com 1.10,2013-02-14 15:36:00,
2013-02-14 10:51:00,37.8,27.0,29.88,SSW,206,2.0,-999.0,65,-99.99,,,0.00,weatherlink.com 1.10,2013-02-14 15:51:00,
2013-02-14 11:06:00,38.8,27.0,29.88,South,190,0.0,-999.0,64,-99.99,,,0.00,weatherlink.com 1.10,2013-02-14 16:06:00,
2013-02-14 11:21:00,39.8,28.0,29.88,West,269,1.0,-999.0,62,-99.99,,,0.00,weatherlink.com 1.10,2013-02-14 16:21:00,
2013-02-14 11:36:00,40.6,28.0,29.87,SW,231,1.0,-999.0,62,-99.99,,,0.00,weatherlink.com 1.10,2013-02-14 16:36:00,
2013-02-14 11:51:00,41.6,29.0,29.86,SSW,194,0.0,-999.0,62,-99.99,,,0.00,weatherlink.com 1.10,2013-02-14 16:51:00,
2013-02-14 12:06:00,41.6,29.0,29.87,SSW,200,0.0,-999.0,62,-99.99,,,0.00,weatherlink.com 1.10,2013-02-14 17:06:00,
2013-02-14 12:21:00,41.2,29.0,29.86,WNW,302,1.0,-999.0,62,-99.99,,,0.00,weatherlink.com 1.10,2013-02-14 17:21:00,
2013-02-14 12:36:00,41.8,29.0,29.85,SSW,205,0.0,-999.0,62,-99.99,,,0.00,weatherlink.com 1.10,2013-02-14 17:36:00,
2013-02-14 12:51:00,41.3,29.0,29.85,WSW,244,0.0,-999.0,63,-99.99,,,0.00,weatherlink.com 1.10,2013-02-14 17:51:00,
2013-02-14 13:06:00,41.0,30.0,29.84,WNW,300,3.0,-999.0,64,-99.99,,,0.00,weatherlink.com 1.10,2013-02-14 18:06:00,
2013-02-14 13:21:00,40.2,30.0,29.84,WNW,301,2.0,-999.0,67,-99.99,,,0.00,weatherlink.com 1.10,2013-02-14 18:21:00,
2013-02-14 13:36:00,40.0,30.0,29.84,SSW,209,0.0,-999.0,68,-99.99,,,0.00,weatherlink.com 1.10,2013-02-14 18:36:00,
2013-02-14 13:51:00,40.2,30.0,29.84,WNW,303,2.0,-999.0,67,-99.99,,,0.00,weatherlink.com 1.10,2013-02-14 18:51:00,
2013-02-14 14:06:00,40.6,30.0,29.83,WNW,286,0.0,-999.0,67,-99.99,,,0.00,weatherlink.com 1.10,2013-02-14 19:06:00,
2013-02-14 14:21:00,40.9,31.0,29.83,WNW,285,0.0,-999.0,68,-99.99,,,0.00,weatherlink.com 1.10,2013-02-14 19:21:00,
2013-02-14 14:36:00,41.1,30.0,29.83,SW,224,1.0,-999.0,66,-99.99,,,0.00,weatherlink.com 1.10,2013-02-14 19:36:00,
2013-02-14 14:51:00,41.1,31.0,29.83,SW,232,1.0,-999.0,68,-99.99,,,0.00,weatherlink.com 1.10,2013-02-14 19:51:00,
2013-02-14 15:06:00,40.6,32.0,29.82,East,97,3.0,-999.0,70,-99.99,,,0.00,weatherlink.com 1.10,2013-02-14 20:06:00,
2013-02-14 15:21:00,40.4,32.0,29.82,ENE,77,1.0,-999.0,71,-99.99,,,0.00,weatherlink.com 1.10,2013-02-14 20:21:00,
2013-02-14 15:36:00,40.1,32.0,29.82,West,259,1.0,-999.0,74,-99.99,,,0.00,weatherlink.com 1.10,2013-02-14 20:36:00,
2013-02-14 15:51:00,39.3,33.0,29.83,WNW,302,2.0,-999.0,79,-99.99,,,0.00,weatherlink.com 1.10,2013-02-14 20:51:00,
2013-02-14 16:06:00,38.6,34.0,29.82,SW,236,3.0,-999.0,83,-99.99,,,0.00,weatherlink.com 1.10,2013-02-14 21:06:00,
2013-02-14 16:21:00,37.7,34.0,29.82,SW,217,0.0,-999.0,86,-99.99,,,0.00,weatherlink.com 1.10,2013-02-14 21:21:00,
2013-02-14 16:36:00,37.3,34.0,29.82,West,273,0.0,-999.0,88,-99.99,,,0.00,weatherlink.com 1.10,2013-02-14 21:36:00,
2013-02-14 16:51:00,37.0,34.0,29.82,SSE,161,0.0,-999.0,90,-99.99,,,0.01,weatherlink.com 1.10,2013-02-14 21:51:00,
2013-02-14 17:06:00,36.6,34.0,29.82,WSW,246,0.0,-999.0,91,-99.99,,,0.01,weatherlink.com 1.10,2013-02-14 22:06:00,
2013-02-14 17:21:00,36.6,34.0,29.82,SW,228,0.0,-999.0,91,-99.99,,,0.01,weatherlink.com 1.10,2013-02-14 22:21:00,
2013-02-14 17:36:00,36.5,34.0,29.82,ESE,117,3.0,-999.0,91,-99.99,,,0.01,weatherlink.com 1.10,2013-02-14 22:36:00,
2013-02-14 17:51:00,36.3,34.0,29.82,ESE,113,0.0,-999.0,91,-99.99,,,0.01,weatherlink.com 1.10,2013-02-14 22:51:00,
2013-02-14 18:06:00,36.3,34.0,29.82,South,185,1.0,-999.0,92,-99.99,,,0.01,weatherlink.com 1.10,2013-02-14 23:06:00,
2013-02-14 18:21:00,36.3,34.0,29.82,SSE,154,1.0,-999.0,91,-99.99,,,0.01,weatherlink.com 1.10,2013-02-14 23:21:00,
2013-02-14 18:36:00,36.5,34.0,29.82,SSE,151,0.0,-999.0,91,-99.99,,,0.01,weatherlink.com 1.10,2013-02-14 23:36:00,
2013-02-14 18:51:00,36.7,34.0,29.82,NNE,21,1.0,-999.0,90,-99.99,,,0.01,weatherlink.com 1.10,2013-02-14 23:51:00,
2013-02-14 19:06:00,36.9,34.0,29.82,South,180,0.0,-999.0,90,-99.99,,,0.01,weatherlink.com 1.10,2013-02-15 00:06:00,
2013-02-14 19:21:00,36.9,34.0,29.82,SE,126,0.0,-999.0,90,-99.99,,,0.02,weatherlink.com 1.10,2013-02-15 00:21:00,
2013-02-14 19:36:00,36.6,34.0,29.82,SW,224,1.0,-999.0,91,-99.99,,,0.02,weatherlink.com 1.10,2013-02-15 00:36:00,
2013-02-14 19:51:00,36.4,34.0,29.82,South,188,2.0,-999.0,91,-99.99,,,0.03,weatherlink.com 1.10,2013-02-15 00:51:00,
2013-02-14 20:06:00,36.0,34.0,29.82,SW,221,2.0,-999.0,92,-99.99,,,0.04,weatherlink.com 1.10,2013-02-15 01:06:00,
2013-02-14 20:21:00,35.8,34.0,29.82,SSE,153,0.0,-999.0,93,-99.99,,,0.05,weatherlink.com 1.10,2013-02-15 01:21:00,
2013-02-14 20:36:00,35.6,34.0,29.82,SSW,211,1.0,-999.0,93,-99.99,,,0.06,weatherlink.com 1.10,2013-02-15 01:36:00,
2013-02-14 20:51:00,35.4,34.0,29.82,ESE,110,3.0,-999.0,94,-99.99,,,0.07,weatherlink.com 1.10,2013-02-15 01:51:00,
2013-02-14 21:06:00,35.3,34.0,29.81,SE,144,0.0,-999.0,94,-99.99,,,0.08,weatherlink.com 1.10,2013-02-15 02:06:00,
2013-02-14 21:21:00,35.7,34.0,29.81,East,87,0.0,-999.0,94,-99.99,,,0.08,weatherlink.com 1.10,2013-02-15 02:21:00,
2013-02-14 21:36:00,36.2,35.0,29.80,ESE,109,0.0,-999.0,94,-99.99,,,0.08,weatherlink.com 1.10,2013-02-15 02:36:00,
2013-02-14 21:51:00,36.6,35.0,29.80,NW,324,0.0,-999.0,93,-99.99,,,0.08,weatherlink.com 1.10,2013-02-15 02:51:00,
2013-02-14 22:06:00,36.9,35.0,29.80,SSW,196,0.0,-999.0,93,-99.99,,,0.08,weatherlink.com 1.10,2013-02-15 03:06:00,
2013-02-14 22:21:00,37.4,35.0,29.79,WSW,248,2.0,-999.0,92,-99.99,,,0.09,weatherlink.com 1.10,2013-02-15 03:21:00,
2013-02-14 22:36:00,37.3,35.0,29.79,SW,227,0.0,-999.0,92,-99.99,,,0.09,weatherlink.com 1.10,2013-02-15 03:36:00,
2013-02-14 22:51:00,37.3,35.0,29.79,SW,214,3.0,-999.0,92,-99.99,,,0.09,weatherlink.com 1.10,2013-02-15 03:51:00,
2013-02-14 23:06:00,37.2,35.0,29.79,SW,222,1.0,-999.0,93,-99.99,,,0.09,weatherlink.com 1.10,2013-02-15 04:06:00,
2013-02-14 23:21:00,37.5,35.0,29.79,West,281,0.0,-999.0,92,-99.99,,,0.09,weatherlink.com 1.10,2013-02-15 04:21:00,
2013-02-14 23:36:00,37.5,35.0,29.79,SSE,151,2.0,-999.0,92,-99.99,,,0.09,weatherlink.com 1.10,2013-02-15 04:36:00,
2013-02-14 23:51:00,37.8,36.0,29.79,West,269,0.0,-999.0,91,-99.99,,,0.09,weatherlink.com 1.10,2013-02-15 04:51:00,